sensor_id;sensor_type;location;lat;lon;timestamp;pressure;altitude;pressure_sealevel;temperature;humidity
21706;BME280;11014;53.076;18.208;2023-04-26T00:01:56;100690.13;;;8.32;57.85
21706;BME280;11014;53.076;18.208;2023-04-26T00:04:25;100674.50;;;8.29;58.00
21706;BME280;11014;53.076;18.208;2023-04-26T00:06:56;100681.50;;;8.30;57.90
21706;BME280;11014;53.076;18.208;2023-04-26T00:09:25;100679.03;;;8.22;58.10
21706;BME280;11014;53.076;18.208;2023-04-26T00:11:54;100683.59;;;8.15;58.34
21706;BME280;11014;53.076;18.208;2023-04-26T00:14:23;100684.03;;;8.12;58.13
21706;BME280;11014;53.076;18.208;2023-04-26T00:16:52;100682.81;;;8.08;58.34
21706;BME280;11014;53.076;18.208;2023-04-26T00:19:20;100689.78;;;8.09;58.32
21706;BME280;11014;53.076;18.208;2023-04-26T00:21:49;100687.34;;;8.08;58.26
21706;BME280;11014;53.076;18.208;2023-04-26T00:24:17;100684.25;;;8.04;58.15
21706;BME280;11014;53.076;18.208;2023-04-26T00:26:46;100684.50;;;7.96;58.47
21706;BME280;11014;53.076;18.208;2023-04-26T00:29:15;100683.72;;;7.89;58.42
21706;BME280;11014;53.076;18.208;2023-04-26T00:31:43;100681.28;;;7.81;58.72
21706;BME280;11014;53.076;18.208;2023-04-26T00:34:13;100680.47;;;7.74;58.93
21706;BME280;11014;53.076;18.208;2023-04-26T00:36:42;100690.38;;;7.67;59.07
21706;BME280;11014;53.076;18.208;2023-04-26T00:39:10;100693.25;;;7.59;59.16
21706;BME280;11014;53.076;18.208;2023-04-26T00:41:39;100686.69;;;7.55;59.41
21706;BME280;11014;53.076;18.208;2023-04-26T00:44:08;100685.06;;;7.47;59.58
21706;BME280;11014;53.076;18.208;2023-04-26T00:46:36;100683.44;;;7.40;59.73
21706;BME280;11014;53.076;18.208;2023-04-26T00:49:05;100690.63;;;7.33;60.26
21706;BME280;11014;53.076;18.208;2023-04-26T00:51:44;100687.16;;;7.26;60.50
21706;BME280;11014;53.076;18.208;2023-04-26T00:54:13;100694.13;;;7.20;60.87
21706;BME280;11014;53.076;18.208;2023-04-26T00:56:43;100689.41;;;7.15;60.59
21706;BME280;11014;53.076;18.208;2023-04-26T00:59:13;100697.44;;;7.09;60.77
21706;BME280;11014;53.076;18.208;2023-04-26T01:01:42;100704.00;;;7.06;60.81
21706;BME280;11014;53.076;18.208;2023-04-26T01:04:11;100702.75;;;7.02;61.03
21706;BME280;11014;53.076;18.208;2023-04-26T01:06:40;100696.19;;;6.98;60.85
21706;BME280;11014;53.076;18.208;2023-04-26T01:09:09;100696.59;;;6.95;61.26
21706;BME280;11014;53.076;18.208;2023-04-26T01:11:43;100701.53;;;6.92;60.89
21706;BME280;11014;53.076;18.208;2023-04-26T01:14:13;100698.47;;;6.88;60.99
21706;BME280;11014;53.076;18.208;2023-04-26T01:17:07;100702.34;;;6.92;61.21
21706;BME280;11014;53.076;18.208;2023-04-26T01:19:46;100697.41;;;6.89;60.97
21706;BME280;11014;53.076;18.208;2023-04-26T01:22:15;100699.88;;;6.84;60.57
21706;BME280;11014;53.076;18.208;2023-04-26T01:24:45;100696.59;;;6.82;61.03
21706;BME280;11014;53.076;18.208;2023-04-26T01:27:15;100701.31;;;6.87;61.07
21706;BME280;11014;53.076;18.208;2023-04-26T01:29:44;100700.91;;;6.90;60.87
21706;BME280;11014;53.076;18.208;2023-04-26T01:32:13;100704.41;;;6.97;60.98
21706;BME280;11014;53.076;18.208;2023-04-26T01:34:41;100706.06;;;7.04;60.89
21706;BME280;11014;53.076;18.208;2023-04-26T01:37:12;100701.94;;;7.08;61.22
21706;BME280;11014;53.076;18.208;2023-04-26T01:39:41;100699.47;;;7.13;61.39
21706;BME280;11014;53.076;18.208;2023-04-26T01:42:10;100699.25;;;7.22;61.48
21706;BME280;11014;53.076;18.208;2023-04-26T01:44:41;100700.69;;;7.31;61.20
21706;BME280;11014;53.076;18.208;2023-04-26T01:47:10;100705.00;;;7.38;60.91
21706;BME280;11014;53.076;18.208;2023-04-26T01:49:38;100701.50;;;7.44;61.14
21706;BME280;11014;53.076;18.208;2023-04-26T01:52:07;100706.84;;;7.51;61.21
21706;BME280;11014;53.076;18.208;2023-04-26T01:54:35;100713.41;;;7.55;61.32
21706;BME280;11014;53.076;18.208;2023-04-26T01:57:04;100710.94;;;7.60;61.17
21706;BME280;11014;53.076;18.208;2023-04-26T01:59:32;100710.94;;;7.66;61.15
21706;BME280;11014;53.076;18.208;2023-04-26T02:02:02;100714.63;;;7.72;61.00
21706;BME280;11014;53.076;18.208;2023-04-26T02:04:31;100708.44;;;7.78;61.08
21706;BME280;11014;53.076;18.208;2023-04-26T02:06:59;100714.56;;;7.85;60.91
21706;BME280;11014;53.076;18.208;2023-04-26T02:09:28;100714.16;;;7.88;60.94
21706;BME280;11014;53.076;18.208;2023-04-26T02:11:57;100705.50;;;7.93;60.63
21706;BME280;11014;53.076;18.208;2023-04-26T02:14:26;100703.81;;;7.98;60.72
21706;BME280;11014;53.076;18.208;2023-04-26T02:16:54;100706.09;;;8.01;60.66
21706;BME280;11014;53.076;18.208;2023-04-26T02:19:24;100706.69;;;8.03;60.60
21706;BME280;11014;53.076;18.208;2023-04-26T02:21:55;100705.47;;;8.06;60.49
21706;BME280;11014;53.076;18.208;2023-04-26T02:24:24;100708.34;;;8.04;60.55
21706;BME280;11014;53.076;18.208;2023-04-26T02:26:53;100704.66;;;7.99;60.46
21706;BME280;11014;53.076;18.208;2023-04-26T02:29:22;100706.31;;;7.93;60.66
21706;BME280;11014;53.076;18.208;2023-04-26T02:32:12;100703.28;;;7.83;60.70
21706;BME280;11014;53.076;18.208;2023-04-26T02:34:43;100699.78;;;7.76;60.47
21706;BME280;11014;53.076;18.208;2023-04-26T02:37:11;100703.31;;;7.70;60.52
21706;BME280;11014;53.076;18.208;2023-04-26T02:39:40;100703.97;;;7.59;60.82
21706;BME280;11014;53.076;18.208;2023-04-26T02:42:09;100705.19;;;7.50;60.99
21706;BME280;11014;53.076;18.208;2023-04-26T02:44:41;100701.91;;;7.41;61.43
21706;BME280;11014;53.076;18.208;2023-04-26T02:47:11;100704.63;;;7.35;61.24
21706;BME280;11014;53.076;18.208;2023-04-26T02:49:40;100699.88;;;7.30;61.30
21706;BME280;11014;53.076;18.208;2023-04-26T02:52:08;100708.53;;;7.26;61.38
21706;BME280;11014;53.076;18.208;2023-04-26T02:54:37;100695.78;;;7.21;61.54
21706;BME280;11014;53.076;18.208;2023-04-26T02:57:06;100701.72;;;7.16;61.47
21706;BME280;11014;53.076;18.208;2023-04-26T02:59:35;100701.53;;;7.11;61.84
21706;BME280;11014;53.076;18.208;2023-04-26T03:02:04;100695.38;;;7.04;62.32
21706;BME280;11014;53.076;18.208;2023-04-26T03:04:33;100691.69;;;6.99;62.50
21706;BME280;11014;53.076;18.208;2023-04-26T03:07:03;100694.53;;;6.97;62.16
21706;BME280;11014;53.076;18.208;2023-04-26T03:09:32;100687.34;;;6.91;62.83
21706;BME280;11014;53.076;18.208;2023-04-26T03:12:02;100692.06;;;6.89;62.54
21706;BME280;11014;53.076;18.208;2023-04-26T03:14:32;100695.78;;;6.82;62.71
21706;BME280;11014;53.076;18.208;2023-04-26T03:17:02;100698.00;;;6.78;62.93
21706;BME280;11014;53.076;18.208;2023-04-26T03:19:32;100701.50;;;6.72;63.37
21706;BME280;11014;53.076;18.208;2023-04-26T03:22:03;100703.56;;;6.70;63.18
21706;BME280;11014;53.076;18.208;2023-04-26T03:24:32;100711.34;;;6.65;63.39
21706;BME280;11014;53.076;18.208;2023-04-26T03:27:01;100706.41;;;6.55;63.96
21706;BME280;11014;53.076;18.208;2023-04-26T03:29:29;100713.78;;;6.47;64.77
21706;BME280;11014;53.076;18.208;2023-04-26T03:31:59;100716.25;;;6.48;64.63
21706;BME280;11014;53.076;18.208;2023-04-26T03:34:28;100713.78;;;6.47;64.55
21706;BME280;11014;53.076;18.208;2023-04-26T03:36:58;100720.34;;;6.44;64.52
21706;BME280;11014;53.076;18.208;2023-04-26T03:39:26;100722.38;;;6.42;64.54
21706;BME280;11014;53.076;18.208;2023-04-26T03:41:55;100722.78;;;6.39;64.82
21706;BME280;11014;53.076;18.208;2023-04-26T03:44:23;100739.59;;;6.40;64.89
21706;BME280;11014;53.076;18.208;2023-04-26T03:46:54;100727.31;;;6.39;64.95
21706;BME280;11014;53.076;18.208;2023-04-26T03:49:23;100735.31;;;6.39;64.93
21706;BME280;11014;53.076;18.208;2023-04-26T03:51:52;100737.97;;;6.39;65.11
21706;BME280;11014;53.076;18.208;2023-04-26T03:54:20;100739.00;;;6.38;65.49
21706;BME280;11014;53.076;18.208;2023-04-26T03:56:50;100742.50;;;6.38;65.97
21706;BME280;11014;53.076;18.208;2023-04-26T03:59:19;100743.94;;;6.41;65.64
21706;BME280;11014;53.076;18.208;2023-04-26T04:01:49;100747.81;;;6.38;66.57
21706;BME280;11014;53.076;18.208;2023-04-26T04:04:18;100742.91;;;6.42;66.60
21706;BME280;11014;53.076;18.208;2023-04-26T04:06:47;100744.53;;;6.43;66.37
21706;BME280;11014;53.076;18.208;2023-04-26T04:09:17;100741.66;;;6.38;66.94
21706;BME280;11014;53.076;18.208;2023-04-26T04:11:46;100745.16;;;6.45;67.00
21706;BME280;11014;53.076;18.208;2023-04-26T04:14:15;100749.91;;;6.49;66.61
21706;BME280;11014;53.076;18.208;2023-04-26T04:16:43;100747.44;;;6.48;66.77
21706;BME280;11014;53.076;18.208;2023-04-26T04:19:12;100745.81;;;6.53;66.74
21706;BME280;11014;53.076;18.208;2023-04-26T04:21:41;100751.56;;;6.57;66.46
21706;BME280;11014;53.076;18.208;2023-04-26T04:24:10;100751.19;;;6.60;66.57
21706;BME280;11014;53.076;18.208;2023-04-26T04:26:41;100755.28;;;6.63;66.50
21706;BME280;11014;53.076;18.208;2023-04-26T04:29:09;100756.72;;;6.65;66.57
21706;BME280;11014;53.076;18.208;2023-04-26T04:31:38;100761.88;;;6.73;66.50
21706;BME280;11014;53.076;18.208;2023-04-26T04:34:08;100769.28;;;6.71;66.61
21706;BME280;11014;53.076;18.208;2023-04-26T04:36:40;100762.72;;;6.80;66.11
21706;BME280;11014;53.076;18.208;2023-04-26T04:39:09;100762.31;;;6.83;66.32
21706;BME280;11014;53.076;18.208;2023-04-26T04:41:45;100757.81;;;6.90;65.75
21706;BME280;11014;53.076;18.208;2023-04-26T04:44:18;100765.19;;;6.95;66.05
21706;BME280;11014;53.076;18.208;2023-04-26T04:46:47;100769.31;;;6.97;65.56
21706;BME280;11014;53.076;18.208;2023-04-26T04:49:16;100770.97;;;6.98;65.81
21706;BME280;11014;53.076;18.208;2023-04-26T04:51:48;100769.75;;;7.07;65.57
21706;BME280;11014;53.076;18.208;2023-04-26T04:54:17;100769.97;;;7.12;65.30
21706;BME280;11014;53.076;18.208;2023-04-26T04:56:47;100777.13;;;7.18;64.91
21706;BME280;11014;53.076;18.208;2023-04-26T04:59:16;100776.31;;;7.25;64.92
21706;BME280;11014;53.076;18.208;2023-04-26T05:01:46;100787.03;;;7.31;64.55
21706;BME280;11014;53.076;18.208;2023-04-26T05:04:15;100775.50;;;7.31;64.44
21706;BME280;11014;53.076;18.208;2023-04-26T05:06:45;100779.44;;;7.35;64.55
21706;BME280;11014;53.076;18.208;2023-04-26T05:09:13;100780.84;;;7.44;64.39
21706;BME280;11014;53.076;18.208;2023-04-26T05:11:43;100793.00;;;7.53;63.86
21706;BME280;11014;53.076;18.208;2023-04-26T05:14:12;100792.38;;;7.44;63.80
21706;BME280;11014;53.076;18.208;2023-04-26T05:16:43;100796.88;;;7.57;63.78
21706;BME280;11014;53.076;18.208;2023-04-26T05:19:12;100797.09;;;7.55;63.58
21706;BME280;11014;53.076;18.208;2023-04-26T05:21:41;100797.09;;;7.55;63.26
21706;BME280;11014;53.076;18.208;2023-04-26T05:24:09;100795.44;;;7.74;62.81
21706;BME280;11014;53.076;18.208;2023-04-26T05:26:38;100803.44;;;7.74;62.66
21706;BME280;11014;53.076;18.208;2023-04-26T05:29:30;100806.75;;;7.89;62.61
21706;BME280;11014;53.076;18.208;2023-04-26T05:32:09;100812.50;;;7.86;61.63
21706;BME280;11014;53.076;18.208;2023-04-26T05:34:40;100811.00;;;8.03;61.50
21706;BME280;11014;53.076;18.208;2023-04-26T05:37:13;100799.25;;;8.17;61.16
21706;BME280;11014;53.076;18.208;2023-04-26T05:39:41;100801.91;;;8.17;60.92
21706;BME280;11014;53.076;18.208;2023-04-26T05:42:11;100808.69;;;8.26;60.42
21706;BME280;11014;53.076;18.208;2023-04-26T05:44:40;100803.75;;;8.23;60.12
21706;BME280;11014;53.076;18.208;2023-04-26T05:47:35;100812.41;;;8.32;59.64
21706;BME280;11014;53.076;18.208;2023-04-26T05:50:06;100804.59;;;8.24;59.17
21706;BME280;11014;53.076;18.208;2023-04-26T05:52:41;100815.69;;;8.34;59.27
21706;BME280;11014;53.076;18.208;2023-04-26T05:55:35;100811.53;;;8.45;59.35
21706;BME280;11014;53.076;18.208;2023-04-26T05:58:06;100816.47;;;8.48;58.83
21706;BME280;11014;53.076;18.208;2023-04-26T06:00:35;100807.78;;;8.59;58.86
21706;BME280;11014;53.076;18.208;2023-04-26T06:03:04;100812.28;;;8.65;58.49
21706;BME280;11014;53.076;18.208;2023-04-26T06:05:58;100820.06;;;8.79;57.71
21706;BME280;11014;53.076;18.208;2023-04-26T06:08:29;100820.84;;;8.86;58.25
21706;BME280;11014;53.076;18.208;2023-04-26T06:11:00;100826.03;;;8.75;57.17
21706;BME280;11014;53.076;18.208;2023-04-26T06:13:34;100832.41;;;8.80;57.04
21706;BME280;11014;53.076;18.208;2023-04-26T06:16:03;100823.78;;;8.72;57.42
21706;BME280;11014;53.076;18.208;2023-04-26T06:18:32;100820.06;;;8.79;57.26
21706;BME280;11014;53.076;18.208;2023-04-26T06:21:00;100818.72;;;8.95;56.68
21706;BME280;11014;53.076;18.208;2023-04-26T06:23:58;100812.84;;;9.11;56.50
21706;BME280;11014;53.076;18.208;2023-04-26T06:26:28;100803.41;;;9.02;55.90
21706;BME280;11014;53.076;18.208;2023-04-26T06:29:00;100818.13;;;8.93;55.91
21706;BME280;11014;53.076;18.208;2023-04-26T06:31:30;100813.72;;;9.05;56.23
21706;BME280;11014;53.076;18.208;2023-04-26T06:33:59;100807.06;;;9.14;56.06
21706;BME280;11014;53.076;18.208;2023-04-26T06:36:38;100827.66;;;9.20;55.74
21706;BME280;11014;53.076;18.208;2023-04-26T06:39:07;100832.47;;;9.05;55.23
21706;BME280;11014;53.076;18.208;2023-04-26T06:42:01;100812.53;;;8.94;54.29
21706;BME280;11014;53.076;18.208;2023-04-26T06:44:53;100807.56;;;9.29;53.48
21706;BME280;11014;53.076;18.208;2023-04-26T06:47:21;100814.75;;;9.35;54.28
21706;BME280;11014;53.076;18.208;2023-04-26T06:49:55;100802.88;;;9.49;53.59
21706;BME280;11014;53.076;18.208;2023-04-26T06:52:23;100812.47;;;9.64;54.01
21706;BME280;11014;53.076;18.208;2023-04-26T06:54:52;100803.69;;;9.75;53.20
21706;BME280;11014;53.076;18.208;2023-04-26T06:57:24;100806.09;;;9.83;52.91
21706;BME280;11014;53.076;18.208;2023-04-26T06:59:53;100804.53;;;9.93;52.74
21706;BME280;11014;53.076;18.208;2023-04-26T07:02:22;100819.53;;;10.01;50.74
21706;BME280;11014;53.076;18.208;2023-04-26T07:04:52;100804.00;;;9.85;49.69
21706;BME280;11014;53.076;18.208;2023-04-26T07:07:22;100811.34;;;9.96;50.08
21706;BME280;11014;53.076;18.208;2023-04-26T07:09:51;100817.44;;;10.03;50.34
21706;BME280;11014;53.076;18.208;2023-04-26T07:12:20;100829.09;;;9.97;49.25
21706;BME280;11014;53.076;18.208;2023-04-26T07:14:48;100821.31;;;9.89;48.55
21706;BME280;11014;53.076;18.208;2023-04-26T07:17:20;100828.31;;;9.90;48.20
21706;BME280;11014;53.076;18.208;2023-04-26T07:19:50;100828.63;;;10.00;49.09
21706;BME280;11014;53.076;18.208;2023-04-26T07:22:18;100838.22;;;9.89;48.57
21706;BME280;11014;53.076;18.208;2023-04-26T07:24:47;100818.66;;;10.07;48.34
21706;BME280;11014;53.076;18.208;2023-04-26T07:27:16;100821.38;;;10.25;48.29
21706;BME280;11014;53.076;18.208;2023-04-26T07:29:44;100814.06;;;10.14;47.63
21706;BME280;11014;53.076;18.208;2023-04-26T07:32:13;100816.53;;;10.34;47.92
21706;BME280;11014;53.076;18.208;2023-04-26T07:34:42;100817.19;;;10.47;46.82
21706;BME280;11014;53.076;18.208;2023-04-26T07:37:10;100811.53;;;10.55;47.05
21706;BME280;11014;53.076;18.208;2023-04-26T07:39:39;100819.19;;;10.70;46.75
21706;BME280;11014;53.076;18.208;2023-04-26T07:42:08;100814.78;;;10.57;46.27
21706;BME280;11014;53.076;18.208;2023-04-26T07:44:36;100818.91;;;10.60;46.42
21706;BME280;11014;53.076;18.208;2023-04-26T07:47:11;100826.56;;;10.75;45.48
21706;BME280;11014;53.076;18.208;2023-04-26T07:49:40;100819.47;;;10.80;45.97
21706;BME280;11014;53.076;18.208;2023-04-26T07:52:09;100821.47;;;10.85;46.81
21706;BME280;11014;53.076;18.208;2023-04-26T07:54:37;100816.75;;;10.98;46.49
21706;BME280;11014;53.076;18.208;2023-04-26T07:57:07;100815.75;;;11.11;46.09
21706;BME280;11014;53.076;18.208;2023-04-26T07:59:35;100820.22;;;11.17;43.61
21706;BME280;11014;53.076;18.208;2023-04-26T08:02:04;100823.16;;;11.27;44.05
21706;BME280;11014;53.076;18.208;2023-04-26T08:04:34;100833.00;;;11.33;44.02
21706;BME280;11014;53.076;18.208;2023-04-26T08:07:02;100833.25;;;11.43;42.68
21706;BME280;11014;53.076;18.208;2023-04-26T08:09:31;100839.25;;;11.68;42.01
21706;BME280;11014;53.076;18.208;2023-04-26T08:11:59;100839.06;;;11.81;41.67
21706;BME280;11014;53.076;18.208;2023-04-26T08:14:28;100849.72;;;11.88;41.28
21706;BME280;11014;53.076;18.208;2023-04-26T08:16:57;100836.75;;;11.97;39.82
21706;BME280;11014;53.076;18.208;2023-04-26T08:19:26;100861.66;;;12.04;39.71
21706;BME280;11014;53.076;18.208;2023-04-26T08:21:58;100842.81;;;12.15;41.96
21706;BME280;11014;53.076;18.208;2023-04-26T08:24:27;100854.63;;;11.79;42.85
21706;BME280;11014;53.076;18.208;2023-04-26T08:26:55;100864.16;;;11.52;42.78
21706;BME280;11014;53.076;18.208;2023-04-26T08:29:26;100864.03;;;11.47;42.24
21706;BME280;11014;53.076;18.208;2023-04-26T08:31:55;100863.06;;;11.53;42.16
21706;BME280;11014;53.076;18.208;2023-04-26T08:34:24;100859.09;;;11.85;43.17
21706;BME280;11014;53.076;18.208;2023-04-26T08:36:54;100858.97;;;12.04;42.11
21706;BME280;11014;53.076;18.208;2023-04-26T08:39:23;100866.13;;;12.10;41.38
21706;BME280;11014;53.076;18.208;2023-04-26T08:41:53;100860.38;;;12.18;41.10
21706;BME280;11014;53.076;18.208;2023-04-26T08:44:23;100862.00;;;12.19;40.51
21706;BME280;11014;53.076;18.208;2023-04-26T08:47:02;100855.78;;;12.30;39.34
21706;BME280;11014;53.076;18.208;2023-04-26T08:49:43;100860.47;;;12.34;39.37
21706;BME280;11014;53.076;18.208;2023-04-26T08:52:13;100864.31;;;12.50;40.42
21706;BME280;11014;53.076;18.208;2023-04-26T08:54:43;100858.28;;;12.71;40.03
21706;BME280;11014;53.076;18.208;2023-04-26T08:57:13;100878.09;;;12.65;40.21
21706;BME280;11014;53.076;18.208;2023-04-26T08:59:42;100869.03;;;12.43;38.80
21706;BME280;11014;53.076;18.208;2023-04-26T09:02:17;100868.75;;;12.56;39.00
21706;BME280;11014;53.076;18.208;2023-04-26T09:04:47;100870.25;;;12.64;39.17
21706;BME280;11014;53.076;18.208;2023-04-26T09:07:21;100875.75;;;12.69;40.44
21706;BME280;11014;53.076;18.208;2023-04-26T09:09:57;100891.97;;;12.34;40.28
21706;BME280;11014;53.076;18.208;2023-04-26T09:12:25;100892.56;;;12.36;41.33
21706;BME280;11014;53.076;18.208;2023-04-26T09:14:54;100898.28;;;12.28;40.47
21706;BME280;11014;53.076;18.208;2023-04-26T09:17:31;100900.41;;;12.26;40.97
21706;BME280;11014;53.076;18.208;2023-04-26T09:20:00;100886.22;;;12.54;40.86
21706;BME280;11014;53.076;18.208;2023-04-26T09:22:36;100904.25;;;12.53;40.76
21706;BME280;11014;53.076;18.208;2023-04-26T09:25:06;100889.28;;;12.34;41.05
21706;BME280;11014;53.076;18.208;2023-04-26T09:27:37;100901.94;;;12.33;41.77
21706;BME280;11014;53.076;18.208;2023-04-26T09:30:14;100944.19;;;12.33;41.61
21706;BME280;11014;53.076;18.208;2023-04-26T09:32:53;100928.97;;;12.04;42.47
21706;BME280;11014;53.076;18.208;2023-04-26T09:35:36;100905.06;;;12.19;42.40
21706;BME280;11014;53.076;18.208;2023-04-26T09:38:10;100911.66;;;12.23;42.36
21706;BME280;11014;53.076;18.208;2023-04-26T09:40:42;100915.28;;;12.40;42.20
21706;BME280;11014;53.076;18.208;2023-04-26T09:43:12;100928.16;;;12.73;41.21
21706;BME280;11014;53.076;18.208;2023-04-26T09:48:22;100909.13;;;12.79;41.18
21706;BME280;11014;53.076;18.208;2023-04-26T09:50:55;100918.88;;;12.80;40.96
21706;BME280;11014;53.076;18.208;2023-04-26T09:53:41;100907.81;;;12.82;41.17
21706;BME280;11014;53.076;18.208;2023-04-26T09:56:18;100921.22;;;12.65;40.66
21706;BME280;11014;53.076;18.208;2023-04-26T10:01:16;100917.09;;;13.26;39.60
21706;BME280;11014;53.076;18.208;2023-04-26T10:03:45;100919.41;;;13.34;39.70
21706;BME280;11014;53.076;18.208;2023-04-26T10:06:15;100932.84;;;13.17;38.62
21706;BME280;11014;53.076;18.208;2023-04-26T10:08:44;100925.44;;;13.24;38.54
21706;BME280;11014;53.076;18.208;2023-04-26T10:11:12;100912.00;;;13.13;38.80
21706;BME280;11014;53.076;18.208;2023-04-26T10:13:41;100914.03;;;13.34;38.51
21706;BME280;11014;53.076;18.208;2023-04-26T10:16:11;100904.50;;;13.43;38.01
21706;BME280;11014;53.076;18.208;2023-04-26T10:18:39;100921.88;;;13.35;38.97
21706;BME280;11014;53.076;18.208;2023-04-26T10:21:12;100921.00;;;13.18;38.71
21706;BME280;11014;53.076;18.208;2023-04-26T10:23:43;100908.31;;;13.30;39.22
21706;BME280;11014;53.076;18.208;2023-04-26T10:26:51;100916.72;;;13.62;39.25
21706;BME280;11014;53.076;18.208;2023-04-26T10:29:23;100919.81;;;13.26;39.59
21706;BME280;11014;53.076;18.208;2023-04-26T10:34:33;100929.56;;;13.88;39.25
21706;BME280;11014;53.076;18.208;2023-04-26T10:37:13;100931.31;;;14.11;37.76
21706;BME280;11014;53.076;18.208;2023-04-26T10:39:43;100912.47;;;14.33;37.12
21706;BME280;11014;53.076;18.208;2023-04-26T10:42:22;100923.38;;;14.38;35.83
21706;BME280;11014;53.076;18.208;2023-04-26T10:44:56;100928.53;;;14.06;36.68
21706;BME280;11014;53.076;18.208;2023-04-26T10:47:32;100930.47;;;13.77;37.05
21706;BME280;11014;53.076;18.208;2023-04-26T10:52:36;100975.44;;;13.55;36.52
21706;BME280;11014;53.076;18.208;2023-04-26T10:55:05;100938.22;;;13.57;36.42
21706;BME280;11014;53.076;18.208;2023-04-26T10:57:48;100943.94;;;13.77;36.83
21706;BME280;11014;53.076;18.208;2023-04-26T11:00:28;100940.47;;;13.93;36.77
21706;BME280;11014;53.076;18.208;2023-04-26T11:03:03;100940.25;;;13.66;36.62
21706;BME280;11014;53.076;18.208;2023-04-26T11:10:42;100966.97;;;13.96;35.93
21706;BME280;11014;53.076;18.208;2023-04-26T11:13:11;100958.44;;;13.71;36.30
21706;BME280;11014;53.076;18.208;2023-04-26T11:15:39;100965.16;;;13.85;37.01
21706;BME280;11014;53.076;18.208;2023-04-26T11:18:07;100959.63;;;13.92;35.73
21706;BME280;11014;53.076;18.208;2023-04-26T11:20:36;100970.69;;;13.90;35.89
21706;BME280;11014;53.076;18.208;2023-04-26T11:23:06;100961.50;;;13.91;36.26
21706;BME280;11014;53.076;18.208;2023-04-26T11:25:38;100970.47;;;13.80;36.34
21706;BME280;11014;53.076;18.208;2023-04-26T11:28:07;100989.41;;;13.52;35.25
21706;BME280;11014;53.076;18.208;2023-04-26T11:30:35;100982.59;;;13.49;35.93
21706;BME280;11014;53.076;18.208;2023-04-26T11:33:04;100989.38;;;13.24;35.76
21706;BME280;11014;53.076;18.208;2023-04-26T11:35:35;100974.59;;;13.54;35.99
21706;BME280;11014;53.076;18.208;2023-04-26T11:38:04;100973.97;;;13.64;35.92
21706;BME280;11014;53.076;18.208;2023-04-26T11:40:33;100966.94;;;13.63;35.66
21706;BME280;11014;53.076;18.208;2023-04-26T11:43:04;100963.28;;;13.86;35.29
21706;BME280;11014;53.076;18.208;2023-04-26T11:45:34;100969.47;;;14.31;35.39
21706;BME280;11014;53.076;18.208;2023-04-26T11:48:06;100965.13;;;14.47;33.81
21706;BME280;11014;53.076;18.208;2023-04-26T11:50:36;100962.34;;;14.58;33.79
21706;BME280;11014;53.076;18.208;2023-04-26T11:53:07;100968.22;;;14.72;33.71
21706;BME280;11014;53.076;18.208;2023-04-26T11:55:35;100969.69;;;14.63;33.91
21706;BME280;11014;53.076;18.208;2023-04-26T11:58:10;100975.03;;;14.58;34.03
21706;BME280;11014;53.076;18.208;2023-04-26T12:00:58;100983.97;;;14.42;34.07
21706;BME280;11014;53.076;18.208;2023-04-26T12:03:31;100967.88;;;14.18;34.40
21706;BME280;11014;53.076;18.208;2023-04-26T12:06:03;100979.69;;;13.96;34.23
21706;BME280;11014;53.076;18.208;2023-04-26T12:08:32;100991.31;;;13.68;34.55
21706;BME280;11014;53.076;18.208;2023-04-26T12:11:01;100999.16;;;13.70;35.31
21706;BME280;11014;53.076;18.208;2023-04-26T12:13:30;100992.47;;;13.72;34.96
21706;BME280;11014;53.076;18.208;2023-04-26T12:16:06;100984.88;;;13.86;34.45
21706;BME280;11014;53.076;18.208;2023-04-26T12:18:37;100984.00;;;13.97;34.57
21706;BME280;11014;53.076;18.208;2023-04-26T12:21:05;100978.53;;;14.25;34.00
21706;BME280;11014;53.076;18.208;2023-04-26T12:23:39;100977.00;;;14.46;33.48
21706;BME280;11014;53.076;18.208;2023-04-26T12:26:07;100989.38;;;15.18;32.93
21706;BME280;11014;53.076;18.208;2023-04-26T12:28:39;100987.56;;;15.99;31.57
21706;BME280;11014;53.076;18.208;2023-04-26T12:31:08;100982.22;;;17.30;29.27
21706;BME280;11014;53.076;18.208;2023-04-26T12:33:37;100981.59;;;18.55;28.40
21706;BME280;11014;53.076;18.208;2023-04-26T12:36:07;100974.31;;;20.18;26.99
21706;BME280;11014;53.076;18.208;2023-04-26T12:38:36;100975.53;;;20.01;26.13
21706;BME280;11014;53.076;18.208;2023-04-26T12:41:04;100987.28;;;18.84;27.30
21706;BME280;11014;53.076;18.208;2023-04-26T12:43:33;101000.47;;;17.44;28.58
21706;BME280;11014;53.076;18.208;2023-04-26T12:46:01;100980.94;;;16.85;29.72
21706;BME280;11014;53.076;18.208;2023-04-26T12:48:30;100997.13;;;16.07;30.77
21706;BME280;11014;53.076;18.208;2023-04-26T12:50:59;100988.28;;;16.16;30.22
21706;BME280;11014;53.076;18.208;2023-04-26T12:53:28;100996.53;;;15.73;30.06
21706;BME280;11014;53.076;18.208;2023-04-26T12:55:56;100992.09;;;15.40;30.35
21706;BME280;11014;53.076;18.208;2023-04-26T12:58:26;100991.06;;;15.68;30.91
21706;BME280;11014;53.076;18.208;2023-04-26T13:00:55;100992.03;;;15.83;30.91
21706;BME280;11014;53.076;18.208;2023-04-26T13:03:24;100980.69;;;15.60;30.63
21706;BME280;11014;53.076;18.208;2023-04-26T13:05:53;101017.16;;;16.32;29.62
21706;BME280;11014;53.076;18.208;2023-04-26T13:08:21;100993.31;;;18.00;27.93
21706;BME280;11014;53.076;18.208;2023-04-26T13:10:51;100995.22;;;18.00;27.73
21706;BME280;11014;53.076;18.208;2023-04-26T13:13:20;100994.63;;;17.77;28.11
21706;BME280;11014;53.076;18.208;2023-04-26T13:15:59;100998.75;;;17.23;28.34
21706;BME280;11014;53.076;18.208;2023-04-26T13:18:29;100989.25;;;16.69;29.20
21706;BME280;11014;53.076;18.208;2023-04-26T13:20:57;100993.94;;;16.46;29.34